NCC1701 ETOU-LSGG
Flight info
| Callsign | NCC1701 |
|---|---|
| Flight time | 0h 57m |
| Altitude | 32000 |
| Route | FKS Y163 HERBI Y164 OLBEN N869 BENOT |
| Aircraft | B738/M-SDE2E3FGHIRWXY/LB1 |
Departure
| Time | 2026-04-20 18:40 |
|---|---|
| Airport | Wiesbaden Army Airfield (ETOU) |
Arrival
| Time | 2026-04-20 19:37 |
|---|---|
| Airport | Geneva International Airport (LSGG) |
| Time | Latitude | Longitude | Altitude | Speed | Heading |
|---|---|---|---|---|---|
| 2026-04-20 18:22 | 50.04622 | 8.32719 | 465 ft | 0 kts | 353° |
| 2026-04-20 18:36 | 50.04626 | 8.32709 | 463 ft | 2 kts | 297° |
| 2026-04-20 18:36 | 50.04620 | 8.32670 | 465 ft | 7 kts | 257° |
| 2026-04-20 18:36 | 50.04596 | 8.32562 | 463 ft | 14 kts | 242° |
| 2026-04-20 18:37 | 50.04553 | 8.32387 | 463 ft | 21 kts | 256° |
| 2026-04-20 18:37 | 50.04525 | 8.32137 | 464 ft | 24 kts | 263° |
| 2026-04-20 18:37 | 50.04513 | 8.31902 | 461 ft | 22 kts | 265° |
| 2026-04-20 18:37 | 50.04597 | 8.31721 | 463 ft | 24 kts | 324° |
| 2026-04-20 18:38 | 50.04679 | 8.31587 | 463 ft | 13 kts | 266° |
| 2026-04-20 18:38 | 50.04648 | 8.31414 | 462 ft | 20 kts | 253° |
| 2026-04-20 18:38 | 50.04638 | 8.31234 | 462 ft | 15 kts | 292° |
| 2026-04-20 18:38 | 50.04649 | 8.31199 | 461 ft | 0 kts | 298° |
| 2026-04-20 18:39 | 50.04683 | 8.31152 | 463 ft | 11 kts | 349° |
| 2026-04-20 18:39 | 50.04773 | 8.31448 | 459 ft | 80 kts | 73° |
| 2026-04-20 18:39 | 50.05045 | 8.32767 | 628 ft | 162 kts | 69° |
| 2026-04-20 18:40 | 50.05416 | 8.34518 | 1369 ft | 183 kts | 70° |
| 2026-04-20 18:40 | 50.05820 | 8.36605 | 2126 ft | 203 kts | 70° |
| 2026-04-20 18:40 | 50.06224 | 8.38708 | 2960 ft | 208 kts | 70° |
| 2026-04-20 18:40 | 50.06758 | 8.40809 | 3624 ft | 209 kts | 50° |
| 2026-04-20 18:41 | 50.07915 | 8.42070 | 4398 ft | 208 kts | 15° |
| 2026-04-20 18:41 | 50.09353 | 8.42093 | 5442 ft | 212 kts | 343° |
| 2026-04-20 18:41 | 50.10616 | 8.40899 | 6458 ft | 216 kts | 318° |
| 2026-04-20 18:41 | 50.11678 | 8.39203 | 7382 ft | 224 kts | 313° |
| 2026-04-20 18:42 | 50.12750 | 8.37351 | 8199 ft | 236 kts | 312° |
| 2026-04-20 18:42 | 50.13865 | 8.35411 | 9132 ft | 244 kts | 312° |
| 2026-04-20 18:42 | 50.15007 | 8.33431 | 10149 ft | 248 kts | 312° |
| 2026-04-20 18:42 | 50.16174 | 8.31421 | 11103 ft | 251 kts | 313° |
| 2026-04-20 18:43 | 50.17356 | 8.29397 | 12054 ft | 255 kts | 313° |
| 2026-04-20 18:43 | 50.18566 | 8.27330 | 12786 ft | 260 kts | 313° |
| 2026-04-20 18:43 | 50.19787 | 8.25245 | 13127 ft | 262 kts | 313° |
| 2026-04-20 18:43 | 50.21031 | 8.23122 | 13135 ft | 266 kts | 312° |
| 2026-04-20 18:44 | 50.21961 | 8.20657 | 13137 ft | 265 kts | 286° |
| 2026-04-20 18:44 | 50.22046 | 8.17751 | 13162 ft | 278 kts | 260° |
| 2026-04-20 18:44 | 50.21220 | 8.14902 | 13173 ft | 309 kts | 232° |
| 2026-04-20 18:44 | 50.19427 | 8.12768 | 13168 ft | 341 kts | 206° |
| 2026-04-20 18:45 | 50.17203 | 8.11423 | 13142 ft | 344 kts | 200° |
| 2026-04-20 18:45 | 50.14928 | 8.10244 | 13132 ft | 344 kts | 199° |
| 2026-04-20 18:45 | 50.12657 | 8.09081 | 13129 ft | 343 kts | 199° |
| 2026-04-20 18:45 | 50.10405 | 8.07894 | 13134 ft | 342 kts | 200° |
| 2026-04-20 18:46 | 50.08164 | 8.06678 | 13135 ft | 341 kts | 201° |
| 2026-04-20 18:46 | 50.05927 | 8.05441 | 13137 ft | 341 kts | 201° |
| 2026-04-20 18:46 | 50.03689 | 8.04191 | 13135 ft | 341 kts | 201° |
| 2026-04-20 18:46 | 50.01460 | 8.02940 | 13143 ft | 342 kts | 201° |
| 2026-04-20 18:47 | 49.99223 | 8.01683 | 13134 ft | 342 kts | 201° |
| 2026-04-20 18:47 | 49.96982 | 8.00425 | 13146 ft | 342 kts | 201° |
| 2026-04-20 18:47 | 49.94668 | 7.99559 | 13143 ft | 347 kts | 184° |
| 2026-04-20 18:47 | 49.92266 | 8.00168 | 13741 ft | 357 kts | 160° |
| 2026-04-20 18:48 | 49.90021 | 8.01797 | 14781 ft | 355 kts | 153° |
| 2026-04-20 18:48 | 49.87824 | 8.03572 | 15751 ft | 357 kts | 153° |
| 2026-04-20 18:48 | 49.85622 | 8.05380 | 16628 ft | 361 kts | 152° |
| 2026-04-20 18:48 | 49.83386 | 8.07211 | 17470 ft | 366 kts | 152° |
| 2026-04-20 18:49 | 49.81123 | 8.09049 | 18338 ft | 370 kts | 153° |
| 2026-04-20 18:49 | 49.78819 | 8.10904 | 19047 ft | 376 kts | 153° |
| 2026-04-20 18:49 | 49.76485 | 8.12772 | 19767 ft | 380 kts | 153° |
| 2026-04-20 18:49 | 49.74118 | 8.14657 | 20502 ft | 384 kts | 154° |
| 2026-04-20 18:50 | 49.71728 | 8.16555 | 21185 ft | 389 kts | 154° |
| 2026-04-20 18:50 | 49.69299 | 8.18480 | 21844 ft | 395 kts | 154° |
| 2026-04-20 18:50 | 49.66839 | 8.20426 | 22490 ft | 400 kts | 154° |
| 2026-04-20 18:50 | 49.64336 | 8.22403 | 23132 ft | 406 kts | 155° |
| 2026-04-20 18:51 | 49.61808 | 8.24398 | 23746 ft | 411 kts | 155° |
| 2026-04-20 18:51 | 49.59243 | 8.26420 | 24234 ft | 417 kts | 155° |
| 2026-04-20 18:51 | 49.56639 | 8.28471 | 24695 ft | 423 kts | 156° |
| 2026-04-20 18:51 | 49.54004 | 8.30544 | 25160 ft | 429 kts | 156° |
| 2026-04-20 18:52 | 49.51328 | 8.32646 | 25628 ft | 434 kts | 156° |
| 2026-04-20 18:52 | 49.48621 | 8.34771 | 26085 ft | 439 kts | 156° |
| 2026-04-20 18:52 | 49.45883 | 8.36918 | 26539 ft | 444 kts | 157° |
| 2026-04-20 18:52 | 49.43112 | 8.39088 | 26978 ft | 450 kts | 157° |
| 2026-04-20 18:53 | 49.40248 | 8.41018 | 27375 ft | 448 kts | 169° |
| 2026-04-20 18:53 | 49.37209 | 8.41680 | 27815 ft | 438 kts | 187° |
| 2026-04-20 18:53 | 49.34236 | 8.41124 | 28458 ft | 423 kts | 202° |
| 2026-04-20 18:53 | 49.31466 | 8.39760 | 29078 ft | 418 kts | 207° |
| 2026-04-20 18:54 | 49.28708 | 8.38327 | 29643 ft | 419 kts | 208° |
| 2026-04-20 18:54 | 49.25949 | 8.36904 | 30195 ft | 420 kts | 208° |
| 2026-04-20 18:54 | 49.23174 | 8.35490 | 30702 ft | 419 kts | 208° |
| 2026-04-20 18:54 | 49.20408 | 8.34097 | 31238 ft | 418 kts | 207° |
| 2026-04-20 18:55 | 49.17646 | 8.32718 | 31749 ft | 417 kts | 207° |
| 2026-04-20 18:55 | 49.14887 | 8.31348 | 32243 ft | 417 kts | 207° |
| 2026-04-20 18:55 | 49.12134 | 8.29985 | 32739 ft | 416 kts | 207° |
| 2026-04-20 18:55 | 49.09381 | 8.28625 | 33120 ft | 417 kts | 207° |
| 2026-04-20 18:56 | 49.03837 | 8.25890 | 33101 ft | 416 kts | 207° |
| 2026-04-20 18:56 | 48.98397 | 8.23221 | 33106 ft | 413 kts | 207° |
| 2026-04-20 18:57 | 48.92917 | 8.20528 | 33108 ft | 415 kts | 207° |
| 2026-04-20 18:57 | 48.88313 | 8.18270 | 33102 ft | 415 kts | 207° |
| 2026-04-20 18:58 | 48.82805 | 8.15577 | 33096 ft | 416 kts | 207° |
| 2026-04-20 18:58 | 48.77293 | 8.12891 | 33097 ft | 415 kts | 207° |
| 2026-04-20 18:59 | 48.71799 | 8.10219 | 33097 ft | 414 kts | 206° |
| 2026-04-20 18:59 | 48.66316 | 8.07559 | 33097 ft | 413 kts | 206° |
| 2026-04-20 19:00 | 48.60845 | 8.04910 | 33106 ft | 413 kts | 206° |
| 2026-04-20 19:00 | 48.55376 | 8.02267 | 33103 ft | 412 kts | 206° |
| 2026-04-20 19:01 | 48.49914 | 7.99633 | 33106 ft | 412 kts | 206° |
| 2026-04-20 19:01 | 48.44441 | 7.97000 | 33102 ft | 413 kts | 206° |
| 2026-04-20 19:02 | 48.38952 | 7.94364 | 33107 ft | 414 kts | 206° |
| 2026-04-20 19:02 | 48.33486 | 7.91747 | 33090 ft | 415 kts | 206° |
| 2026-04-20 19:03 | 48.27974 | 7.89114 | 33093 ft | 416 kts | 206° |
| 2026-04-20 19:03 | 48.22450 | 7.86481 | 33092 ft | 417 kts | 206° |
| 2026-04-20 19:04 | 48.16917 | 7.83848 | 33097 ft | 417 kts | 206° |
| 2026-04-20 19:04 | 48.11370 | 7.81217 | 33094 ft | 418 kts | 205° |
| 2026-04-20 19:05 | 48.05825 | 7.78593 | 33092 ft | 419 kts | 205° |
| 2026-04-20 19:05 | 48.00264 | 7.75966 | 33090 ft | 419 kts | 205° |
| 2026-04-20 19:06 | 47.94700 | 7.73344 | 33094 ft | 420 kts | 205° |
| 2026-04-20 19:06 | 47.89126 | 7.70722 | 33088 ft | 421 kts | 205° |
| 2026-04-20 19:07 | 47.83536 | 7.68099 | 33082 ft | 421 kts | 205° |
| 2026-04-20 19:07 | 47.77933 | 7.65477 | 33078 ft | 422 kts | 205° |
| 2026-04-20 19:08 | 47.69521 | 7.61551 | 33068 ft | 423 kts | 204° |
| 2026-04-20 19:09 | 47.63906 | 7.58938 | 33079 ft | 422 kts | 204° |
| 2026-04-20 19:09 | 47.58300 | 7.56335 | 33080 ft | 422 kts | 204° |
| 2026-04-20 19:10 | 47.52699 | 7.53740 | 33071 ft | 421 kts | 204° |
| 2026-04-20 19:10 | 47.47146 | 7.51173 | 33071 ft | 420 kts | 204° |
| 2026-04-20 19:11 | 47.41576 | 7.48603 | 33063 ft | 419 kts | 204° |
| 2026-04-20 19:11 | 47.36010 | 7.46041 | 33047 ft | 418 kts | 204° |
| 2026-04-20 19:12 | 47.30463 | 7.43492 | 33051 ft | 418 kts | 205° |
| 2026-04-20 19:12 | 47.24920 | 7.40950 | 33034 ft | 417 kts | 204° |
| 2026-04-20 19:12 | 47.22134 | 7.39674 | 32524 ft | 419 kts | 205° |
| 2026-04-20 19:13 | 47.19387 | 7.38333 | 32006 ft | 410 kts | 211° |
| 2026-04-20 19:13 | 47.16945 | 7.36378 | 31619 ft | 393 kts | 223° |
| 2026-04-20 19:13 | 47.14853 | 7.33919 | 31266 ft | 378 kts | 231° |
| 2026-04-20 19:13 | 47.13153 | 7.31087 | 30843 ft | 366 kts | 239° |
| 2026-04-20 19:14 | 47.11598 | 7.28145 | 30435 ft | 362 kts | 240° |
| 2026-04-20 19:14 | 47.10064 | 7.25230 | 30001 ft | 359 kts | 240° |
| 2026-04-20 19:14 | 47.08529 | 7.22352 | 29530 ft | 356 kts | 239° |
| 2026-04-20 19:14 | 47.07001 | 7.19523 | 29097 ft | 352 kts | 239° |
| 2026-04-20 19:15 | 47.05486 | 7.16730 | 28666 ft | 348 kts | 239° |
| 2026-04-20 19:15 | 47.03982 | 7.13974 | 28223 ft | 345 kts | 239° |
| 2026-04-20 19:15 | 47.02488 | 7.11245 | 27797 ft | 342 kts | 239° |
| 2026-04-20 19:15 | 47.01006 | 7.08539 | 27368 ft | 339 kts | 239° |
| 2026-04-20 19:16 | 46.99536 | 7.05856 | 26954 ft | 336 kts | 239° |
| 2026-04-20 19:16 | 46.98082 | 7.03201 | 26534 ft | 333 kts | 239° |
| 2026-04-20 19:16 | 46.96635 | 7.00560 | 26124 ft | 331 kts | 239° |
| 2026-04-20 19:16 | 46.95197 | 6.97939 | 25714 ft | 329 kts | 239° |
| 2026-04-20 19:17 | 46.93767 | 6.95338 | 25312 ft | 327 kts | 239° |
| 2026-04-20 19:17 | 46.92302 | 6.92841 | 24910 ft | 331 kts | 232° |
| 2026-04-20 19:17 | 46.90506 | 6.90670 | 24513 ft | 340 kts | 224° |
| 2026-04-20 19:17 | 46.88424 | 6.88901 | 24033 ft | 351 kts | 213° |
| 2026-04-20 19:18 | 46.86174 | 6.87502 | 23629 ft | 352 kts | 210° |
| 2026-04-20 19:18 | 46.83901 | 6.86168 | 23153 ft | 352 kts | 210° |
| 2026-04-20 19:18 | 46.81630 | 6.84846 | 22706 ft | 350 kts | 210° |
| 2026-04-20 19:18 | 46.79385 | 6.83528 | 22313 ft | 347 kts | 210° |
| 2026-04-20 19:19 | 46.77157 | 6.82207 | 21893 ft | 345 kts | 210° |
| 2026-04-20 19:19 | 46.74937 | 6.80882 | 21470 ft | 343 kts | 210° |
| 2026-04-20 19:19 | 46.72743 | 6.79568 | 21080 ft | 340 kts | 210° |
| 2026-04-20 19:19 | 46.70563 | 6.78261 | 20701 ft | 338 kts | 209° |
| 2026-04-20 19:20 | 46.68390 | 6.76960 | 20292 ft | 336 kts | 209° |
| 2026-04-20 19:20 | 46.66232 | 6.75669 | 19914 ft | 334 kts | 209° |
| 2026-04-20 19:20 | 46.64154 | 6.74230 | 19512 ft | 329 kts | 214° |
| 2026-04-20 19:20 | 46.62148 | 6.72657 | 19134 ft | 326 kts | 215° |
| 2026-04-20 19:21 | 46.60166 | 6.71060 | 18750 ft | 325 kts | 215° |
| 2026-04-20 19:21 | 46.58193 | 6.69470 | 18363 ft | 324 kts | 214° |
| 2026-04-20 19:21 | 46.56222 | 6.67894 | 17929 ft | 323 kts | 214° |
| 2026-04-20 19:21 | 46.54251 | 6.66328 | 17514 ft | 322 kts | 214° |
| 2026-04-20 19:22 | 46.52292 | 6.64779 | 17121 ft | 320 kts | 214° |
| 2026-04-20 19:22 | 46.50345 | 6.63245 | 16707 ft | 318 kts | 214° |
| 2026-04-20 19:22 | 46.48404 | 6.61719 | 16324 ft | 316 kts | 214° |
| 2026-04-20 19:22 | 46.46481 | 6.60207 | 15948 ft | 314 kts | 213° |
| 2026-04-20 19:23 | 46.44567 | 6.58705 | 15562 ft | 312 kts | 213° |
| 2026-04-20 19:23 | 46.42666 | 6.57216 | 15199 ft | 310 kts | 213° |
| 2026-04-20 19:23 | 46.40795 | 6.55753 | 15067 ft | 300 kts | 213° |
| 2026-04-20 19:23 | 46.39098 | 6.54131 | 14866 ft | 288 kts | 227° |
| 2026-04-20 19:24 | 46.37690 | 6.52081 | 14686 ft | 287 kts | 230° |
| 2026-04-20 19:24 | 46.36294 | 6.49964 | 14481 ft | 294 kts | 231° |
| 2026-04-20 19:24 | 46.34867 | 6.47800 | 14262 ft | 298 kts | 230° |
| 2026-04-20 19:24 | 46.33431 | 6.45642 | 14046 ft | 298 kts | 230° |
| 2026-04-20 19:25 | 46.31994 | 6.43496 | 13829 ft | 297 kts | 230° |
| 2026-04-20 19:25 | 46.30554 | 6.41358 | 13584 ft | 296 kts | 230° |
| 2026-04-20 19:25 | 46.29122 | 6.39240 | 13347 ft | 293 kts | 229° |
| 2026-04-20 19:25 | 46.27701 | 6.37140 | 12977 ft | 291 kts | 229° |
| 2026-04-20 19:26 | 46.26287 | 6.35054 | 12577 ft | 291 kts | 229° |
| 2026-04-20 19:26 | 46.24873 | 6.32968 | 12214 ft | 290 kts | 229° |
| 2026-04-20 19:26 | 46.23469 | 6.30901 | 11811 ft | 285 kts | 229° |
| 2026-04-20 19:26 | 46.22109 | 6.28905 | 11617 ft | 270 kts | 228° |
| 2026-04-20 19:27 | 46.20826 | 6.27025 | 11507 ft | 256 kts | 229° |
| 2026-04-20 19:27 | 46.19611 | 6.25242 | 11413 ft | 243 kts | 229° |
| 2026-04-20 19:27 | 46.18478 | 6.23564 | 11304 ft | 231 kts | 229° |
| 2026-04-20 19:27 | 46.17362 | 6.21903 | 11041 ft | 222 kts | 229° |
| 2026-04-20 19:28 | 46.16291 | 6.20310 | 10458 ft | 223 kts | 229° |
| 2026-04-20 19:28 | 46.15196 | 6.18680 | 10081 ft | 227 kts | 228° |
| 2026-04-20 19:28 | 46.14113 | 6.17070 | 9850 ft | 225 kts | 228° |
| 2026-04-20 19:28 | 46.13024 | 6.15455 | 9535 ft | 225 kts | 228° |
| 2026-04-20 19:29 | 46.11933 | 6.13839 | 9210 ft | 225 kts | 228° |
| 2026-04-20 19:29 | 46.10832 | 6.12211 | 8907 ft | 223 kts | 227° |
| 2026-04-20 19:29 | 46.09775 | 6.10650 | 8848 ft | 211 kts | 227° |
| 2026-04-20 19:29 | 46.08787 | 6.09206 | 8758 ft | 199 kts | 227° |
| 2026-04-20 19:30 | 46.07821 | 6.07813 | 8597 ft | 191 kts | 227° |
| 2026-04-20 19:30 | 46.06889 | 6.06469 | 8356 ft | 189 kts | 227° |
| 2026-04-20 19:30 | 46.05972 | 6.05146 | 8077 ft | 190 kts | 227° |
| 2026-04-20 19:30 | 46.05327 | 6.03549 | 7773 ft | 187 kts | 265° |
| 2026-04-20 19:31 | 46.05686 | 6.01810 | 7466 ft | 186 kts | 309° |
| 2026-04-20 19:31 | 46.06546 | 6.00454 | 7338 ft | 179 kts | 312° |
| 2026-04-20 19:31 | 46.07365 | 5.99166 | 7072 ft | 172 kts | 312° |
| 2026-04-20 19:31 | 46.08175 | 5.97901 | 6616 ft | 174 kts | 313° |
| 2026-04-20 19:32 | 46.09058 | 5.96568 | 5826 ft | 191 kts | 314° |
| 2026-04-20 19:32 | 46.09995 | 5.95272 | 5419 ft | 176 kts | 327° |
| 2026-04-20 19:32 | 46.11054 | 5.94632 | 5110 ft | 155 kts | 352° |
| 2026-04-20 19:32 | 46.12020 | 5.94716 | 4791 ft | 136 kts | 17° |
| 2026-04-20 19:33 | 46.12887 | 5.95234 | 4284 ft | 133 kts | 33° |
| 2026-04-20 19:33 | 46.13636 | 5.95968 | 3942 ft | 128 kts | 41° |
| 2026-04-20 19:33 | 46.14349 | 5.96895 | 3776 ft | 131 kts | 47° |
| 2026-04-20 19:33 | 46.14918 | 5.97816 | 3460 ft | 122 kts | 46° |
| 2026-04-20 19:34 | 46.15546 | 5.98747 | 3199 ft | 128 kts | 45° |
| 2026-04-20 19:34 | 46.16158 | 5.99677 | 3059 ft | 128 kts | 47° |
| 2026-04-20 19:34 | 46.16745 | 6.00598 | 3027 ft | 124 kts | 46° |
| 2026-04-20 19:34 | 46.17367 | 6.01494 | 2881 ft | 130 kts | 39° |
| 2026-04-20 19:35 | 46.18028 | 6.02421 | 2777 ft | 134 kts | 45° |
| 2026-04-20 19:35 | 46.18668 | 6.03389 | 2667 ft | 134 kts | 46° |
| 2026-04-20 19:35 | 46.19299 | 6.04351 | 2441 ft | 131 kts | 40° |
| 2026-04-20 19:35 | 46.19977 | 6.05250 | 2227 ft | 133 kts | 41° |
| 2026-04-20 19:36 | 46.20626 | 6.06194 | 2107 ft | 129 kts | 45° |
| 2026-04-20 19:36 | 46.21242 | 6.07148 | 1948 ft | 132 kts | 37° |
| 2026-04-20 19:36 | 46.21919 | 6.08018 | 1750 ft | 130 kts | 44° |
| 2026-04-20 19:36 | 46.22506 | 6.08981 | 1536 ft | 122 kts | 39° |
| 2026-04-20 19:37 | 46.23070 | 6.09831 | 1420 ft | 114 kts | 37° |
| 2026-04-20 19:37 | 46.23507 | 6.10447 | 1411 ft | 53 kts | 45° |
| 2026-04-20 19:37 | 46.23649 | 6.10680 | 1407 ft | 7 kts | 107° |
| 2026-04-20 19:37 | 46.23596 | 6.10726 | 1405 ft | 11 kts | 173° |
| 2026-04-20 19:38 | 46.23509 | 6.10697 | 1399 ft | 15 kts | 195° |
| 2026-04-20 19:38 | 46.23410 | 6.10644 | 1407 ft | 16 kts | 210° |
| 2026-04-20 19:38 | 46.23299 | 6.10609 | 1410 ft | 11 kts | 181° |